createdAt,value
2022-09-28T00:01:21.710Z,37.13
2022-09-28T00:03:52.305Z,36.95
2022-09-28T00:06:24.481Z,37.38
2022-09-28T00:08:52.566Z,37.33
2022-09-28T00:11:21.558Z,37.21
2022-09-28T00:13:56.524Z,37.33
2022-09-28T00:16:27.114Z,37.14
2022-09-28T00:18:55.129Z,37.42
2022-09-28T00:21:27.230Z,37.23
2022-09-28T00:24:15.848Z,37.52
2022-09-28T00:26:52.837Z,37.08
2022-09-28T00:29:27.830Z,37.21
2022-09-28T00:32:02.645Z,37.66
2022-09-28T00:34:33.005Z,37.44
2022-09-28T00:37:02.216Z,37.66
2022-09-28T00:39:31.905Z,37.36
2022-09-28T00:41:59.924Z,37.08
2022-09-28T00:44:36.176Z,37.43
2022-09-28T00:47:15.217Z,37.47
2022-09-28T00:50:01.273Z,37.04
2022-09-28T00:53:01.405Z,37.51
2022-09-28T00:55:46.537Z,37.41
2022-09-28T00:58:20.176Z,37.28
2022-09-28T01:00:49.162Z,37.40
2022-09-28T01:03:17.499Z,37.43
2022-09-28T01:05:47.227Z,37.60
2022-09-28T01:08:17.683Z,37.49
2022-09-28T01:10:45.443Z,37.25
2022-09-28T01:13:16.278Z,37.36
2022-09-28T01:15:54.901Z,37.32
2022-09-28T01:18:41.252Z,37.23
2022-09-28T01:21:25.737Z,37.25
2022-09-28T01:24:16.673Z,37.37
2022-09-28T01:26:55.225Z,37.37
2022-09-28T01:29:35.930Z,37.69
2022-09-28T01:32:31.665Z,37.93
2022-09-28T01:35:05.412Z,37.52
2022-09-28T01:37:45.470Z,37.68
2022-09-28T01:40:15.774Z,37.38
2022-09-28T01:42:47.162Z,37.37
2022-09-28T01:45:20.882Z,37.33
2022-09-28T01:47:50.861Z,37.24
2022-09-28T01:50:22.913Z,37.37
2022-09-28T01:52:57.278Z,37.52
2022-09-28T01:55:38.878Z,37.62
2022-09-28T01:58:22.466Z,37.15
2022-09-28T02:00:57.704Z,37.45
2022-09-28T02:03:33.174Z,37.46
2022-09-28T02:06:11.729Z,37.97
2022-09-28T02:08:59.751Z,37.99
2022-09-28T02:11:41.611Z,37.78
2022-09-28T02:14:12.529Z,37.50
2022-09-28T02:17:20.154Z,37.49
2022-09-28T02:19:48.414Z,37.63
2022-09-28T02:22:34.223Z,37.86
2022-09-28T02:25:18.120Z,37.63
2022-09-28T02:28:00.543Z,37.60
2022-09-28T02:30:35.754Z,37.84
2022-09-28T02:33:20.075Z,37.79
2022-09-28T02:35:48.114Z,37.89
2022-09-28T02:38:16.890Z,37.92
2022-09-28T02:40:53.397Z,38.41
2022-09-28T02:43:33.366Z,38.18
2022-09-28T02:46:10.213Z,37.85
2022-09-28T02:48:52.219Z,38.18
2022-09-28T02:51:45.369Z,38.52
2022-09-28T02:54:26.319Z,38.10
2022-09-28T02:57:32.872Z,38.09
2022-09-28T03:00:14.454Z,38.01
2022-09-28T03:03:25.803Z,37.88
2022-09-28T03:06:02.622Z,37.93
2022-09-28T03:09:23.037Z,38.13
2022-09-28T03:12:05.221Z,38.34
2022-09-28T03:14:32.918Z,38.39
2022-09-28T03:17:00.899Z,38.62
2022-09-28T03:19:32.419Z,38.12
2022-09-28T03:22:01.978Z,38.25
2022-09-28T03:24:29.713Z,38.17
2022-09-28T03:26:57.362Z,38.46
2022-09-28T03:29:24.994Z,37.97
2022-09-28T03:31:58.846Z,38.00
2022-09-28T03:34:26.642Z,38.23
2022-09-28T03:36:54.507Z,37.86
2022-09-28T03:39:22.282Z,38.33
2022-09-28T03:41:49.885Z,37.84
2022-09-28T03:44:19.316Z,38.21
2022-09-28T03:46:49.132Z,37.87
2022-09-28T03:49:16.930Z,38.43
2022-09-28T03:51:44.682Z,38.48
2022-09-28T03:54:13.082Z,38.21
2022-09-28T03:56:41.381Z,38.48
2022-09-28T03:59:08.987Z,38.38
2022-09-28T04:01:37.525Z,38.40
2022-09-28T04:04:05.740Z,38.45
2022-09-28T04:06:33.468Z,38.31
2022-09-28T04:09:01.196Z,38.32
2022-09-28T04:11:38.515Z,38.53
2022-09-28T04:14:17.780Z,38.79
2022-09-28T04:16:45.718Z,38.84
2022-09-28T04:19:15.973Z,38.65
2022-09-28T04:22:06.615Z,38.68
2022-09-28T04:24:34.394Z,38.54
2022-09-28T04:27:20.857Z,39.76
2022-09-28T04:29:49.630Z,40.11
2022-09-28T04:32:18.697Z,39.38
2022-09-28T04:34:46.254Z,39.35
2022-09-28T04:37:15.136Z,38.91
2022-09-28T04:39:46.287Z,39.02
2022-09-28T04:42:18.530Z,38.55
2022-09-28T04:44:46.636Z,39.07
2022-09-28T04:47:14.765Z,39.13
2022-09-28T04:49:57.599Z,39.31
2022-09-28T04:52:37.128Z,39.74
2022-09-28T04:55:06.346Z,39.51
2022-09-28T04:57:35.820Z,39.99
2022-09-28T05:00:04.807Z,39.78
2022-09-28T05:02:35.341Z,39.99
2022-09-28T05:05:22.069Z,40.15
2022-09-28T05:08:09.735Z,39.76
2022-09-28T05:10:40.753Z,39.67
2022-09-28T05:13:09.693Z,39.89
2022-09-28T05:15:38.762Z,39.91
2022-09-28T05:18:07.210Z,40.13
2022-09-28T05:20:46.433Z,40.19
2022-09-28T05:23:15.717Z,40.17
2022-09-28T05:25:46.001Z,40.45
2022-09-28T05:28:28.955Z,41.01
2022-09-28T05:31:15.163Z,40.47
2022-09-28T05:34:18.158Z,40.46
2022-09-28T05:36:46.831Z,41.10
2022-09-28T05:39:14.735Z,40.87
2022-09-28T05:41:42.553Z,40.65
2022-09-28T05:44:12.267Z,40.55
2022-09-28T05:46:40.211Z,40.31
2022-09-28T05:49:10.080Z,40.43
2022-09-28T05:51:39.546Z,40.37
2022-09-28T05:54:09.025Z,39.68
2022-09-28T05:56:40.896Z,39.87
2022-09-28T05:59:09.514Z,39.89
2022-09-28T06:01:37.919Z,39.62
2022-09-28T06:04:09.407Z,40.11
2022-09-28T06:06:43.608Z,40.64
2022-09-28T06:09:11.360Z,39.77
2022-09-28T06:11:48.486Z,40.33
2022-09-28T06:14:24.495Z,42.18
2022-09-28T06:16:52.321Z,41.21
2022-09-28T06:19:20.119Z,42.19
2022-09-28T06:22:09.119Z,41.70
2022-09-28T06:24:47.585Z,39.94
2022-09-28T06:27:15.358Z,39.73
2022-09-28T06:29:43.313Z,40.60
2022-09-28T06:32:12.590Z,40.33
2022-09-28T06:34:42.153Z,40.59
2022-09-28T06:37:10.051Z,39.89
2022-09-28T06:39:38.219Z,39.36
2022-09-28T06:42:06.549Z,39.59
2022-09-28T06:44:52.731Z,39.59
2022-09-28T06:47:39.288Z,39.83
2022-09-28T06:50:17.704Z,39.46
2022-09-28T06:53:13.789Z,39.49
2022-09-28T06:55:54.989Z,39.52
2022-09-28T06:58:23.826Z,39.39
2022-09-28T07:00:52.503Z,39.32
2022-09-28T07:03:22.544Z,39.19
2022-09-28T07:06:12.093Z,39.16
2022-09-28T07:09:02.942Z,39.30
2022-09-28T07:12:16.171Z,39.14
2022-09-28T07:14:57.840Z,39.41
2022-09-28T07:17:28.511Z,39.03
2022-09-28T07:20:05.459Z,39.60
2022-09-28T07:22:43.510Z,39.89
2022-09-28T07:25:17.150Z,40.77
2022-09-28T07:28:09.559Z,41.73
2022-09-28T07:31:03.756Z,41.43
2022-09-28T07:34:06.910Z,40.80
2022-09-28T07:36:58.960Z,41.86
2022-09-28T07:39:27.028Z,41.24
2022-09-28T07:41:59.643Z,41.34
2022-09-28T07:44:30.196Z,41.79
2022-09-28T07:47:02.278Z,40.63
2022-09-28T07:49:57.213Z,41.84
2022-09-28T07:52:47.465Z,40.15
2022-09-28T07:55:23.901Z,40.69
2022-09-28T07:58:14.769Z,39.79
2022-09-28T08:00:54.821Z,40.06
2022-09-28T08:03:22.662Z,40.56
2022-09-28T08:05:50.375Z,40.74
2022-09-28T08:08:20.306Z,40.27
2022-09-28T08:10:48.735Z,40.63
2022-09-28T08:13:44.171Z,39.79
2022-09-28T08:16:35.164Z,40.57
2022-09-28T08:19:13.497Z,40.63
2022-09-28T08:21:47.323Z,40.79
2022-09-28T08:24:17.778Z,41.20
2022-09-28T08:26:46.987Z,41.51
2022-09-28T08:29:17.288Z,41.84
2022-09-28T08:32:02.012Z,41.25
2022-09-28T08:34:29.726Z,41.06
2022-09-28T08:37:16.223Z,41.12
2022-09-28T08:40:04.459Z,40.80
2022-09-28T08:42:54.966Z,41.13
2022-09-28T08:45:41.137Z,41.10
2022-09-28T08:48:56.284Z,41.17
2022-09-28T08:51:55.029Z,41.45
2022-09-28T08:54:56.348Z,41.44
2022-09-28T08:58:18.266Z,41.21
2022-09-28T09:00:48.878Z,41.18
2022-09-28T09:03:41.866Z,41.16
2022-09-28T09:06:54.075Z,40.77
2022-09-28T09:09:40.136Z,40.65
2022-09-28T09:12:38.846Z,40.93
2022-09-28T09:15:38.867Z,40.43
2022-09-28T09:18:33.453Z,40.86
2022-09-28T09:21:49.067Z,40.69
2022-09-28T09:24:25.125Z,40.84
2022-09-28T09:27:16.053Z,40.94
2022-09-28T09:30:06.471Z,40.93
2022-09-28T09:33:05.325Z,40.42
2022-09-28T09:36:32.828Z,40.97
2022-09-28T09:39:44.024Z,40.23
2022-09-28T09:42:44.748Z,41.20
2022-09-28T09:45:53.318Z,40.67
2022-09-28T09:48:59.396Z,40.08
2022-09-28T09:51:27.132Z,40.31
2022-09-28T09:54:03.664Z,40.81
2022-09-28T09:56:40.568Z,40.72
2022-09-28T09:59:20.378Z,40.37
2022-09-28T10:02:26.284Z,40.72
2022-09-28T10:05:12.356Z,40.37
2022-09-28T10:08:06.324Z,40.59
2022-09-28T10:10:42.863Z,41.10
2022-09-28T10:13:14.906Z,40.76
2022-09-28T10:15:47.718Z,40.66
2022-09-28T10:18:21.680Z,40.58
2022-09-28T10:21:13.317Z,40.58
2022-09-28T10:24:22.913Z,41.53
2022-09-28T10:26:55.153Z,40.83
2022-09-28T10:29:27.197Z,41.06
2022-09-28T10:31:55.730Z,40.50
2022-09-28T10:34:31.141Z,40.69
2022-09-28T10:37:11.168Z,40.97
2022-09-28T10:39:57.607Z,41.18
2022-09-28T10:42:34.120Z,41.07
2022-09-28T10:45:24.058Z,41.18
2022-09-28T10:47:52.032Z,41.45
2022-09-28T10:50:23.772Z,41.53
2022-09-28T10:53:17.946Z,41.70
2022-09-28T10:56:19.248Z,41.43
2022-09-28T10:58:48.780Z,41.23
2022-09-28T11:01:38.115Z,41.03
2022-09-28T11:04:10.604Z,41.18
2022-09-28T11:06:40.499Z,41.33
2022-09-28T11:09:43.035Z,41.31
2022-09-28T11:12:17.472Z,41.63
2022-09-28T11:14:46.803Z,41.08
2022-09-28T11:17:32.706Z,41.37
2022-09-28T11:20:26.104Z,41.16
2022-09-28T11:22:57.622Z,41.42
2022-09-28T11:25:31.414Z,41.45
2022-09-28T11:28:04.521Z,41.83
2022-09-28T11:30:33.861Z,41.29
2022-09-28T11:33:35.214Z,42.05
2022-09-28T11:37:01.563Z,41.66
2022-09-28T11:40:03.637Z,41.98
2022-09-28T11:42:49.867Z,41.99
2022-09-28T11:45:32.623Z,41.51
2022-09-28T11:48:07.714Z,41.17
2022-09-28T11:51:00.215Z,41.47
2022-09-28T11:53:35.016Z,41.25
2022-09-28T11:56:17.313Z,41.30
2022-09-28T11:58:49.350Z,42.32
2022-09-28T12:01:37.019Z,42.42
2022-09-28T12:04:21.968Z,41.90
2022-09-28T12:07:06.979Z,42.37
2022-09-28T12:10:00.599Z,42.75
2022-09-28T12:12:36.274Z,41.97
2022-09-28T12:17:19.864Z,41.86
2022-09-28T12:20:04.507Z,43.24
2022-09-28T12:22:41.224Z,42.67
2022-09-28T12:25:16.260Z,41.66
2022-09-28T12:27:51.138Z,42.21
2022-09-28T12:30:21.042Z,42.41
2022-09-28T12:32:57.375Z,42.09
2022-09-28T12:35:52.672Z,42.35
2022-09-28T12:38:33.868Z,41.87
2022-09-28T12:41:05.599Z,41.90
2022-09-28T12:43:33.635Z,42.02
2022-09-28T12:46:17.673Z,41.89
2022-09-28T12:50:01.915Z,41.66
2022-09-28T12:52:33.621Z,41.73
2022-09-28T12:55:32.413Z,41.68
2022-09-28T12:58:31.114Z,42.12
2022-09-28T13:01:01.735Z,41.99
2022-09-28T13:03:59.938Z,41.23
2022-09-28T13:06:42.314Z,41.17
2022-09-28T13:09:16.136Z,40.97
2022-09-28T13:12:14.098Z,40.92
2022-09-28T13:14:54.090Z,41.59
2022-09-28T13:17:38.881Z,40.07
2022-09-28T13:20:31.327Z,40.15
2022-09-28T13:23:15.809Z,40.03
2022-09-28T13:25:52.875Z,39.72
2022-09-28T13:28:27.045Z,39.73
2022-09-28T13:30:59.924Z,39.59
2022-09-28T13:33:37.712Z,39.04
2022-09-28T13:36:26.201Z,38.82
2022-09-28T13:38:56.289Z,39.59
2022-09-28T13:41:40.576Z,39.03
2022-09-28T13:44:11.511Z,40.24
2022-09-28T13:46:55.176Z,38.59
2022-09-28T13:49:56.889Z,38.22
2022-09-28T13:52:40.680Z,38.39
2022-09-28T13:55:14.308Z,38.99
2022-09-28T13:57:49.935Z,38.91
2022-09-28T14:00:29.329Z,38.06
2022-09-28T14:03:06.338Z,37.99
2022-09-28T14:05:45.960Z,37.32
2022-09-28T14:08:28.546Z,36.84
2022-09-28T14:10:57.927Z,37.54
2022-09-28T14:13:40.753Z,37.59
2022-09-28T14:16:23.083Z,36.73
2022-09-28T14:19:02.359Z,36.62
2022-09-28T14:21:54.691Z,37.29
2022-09-28T14:24:50.179Z,37.01
2022-09-28T14:27:36.113Z,37.11
2022-09-28T14:30:18.901Z,36.23
2022-09-28T14:32:58.555Z,35.81
2022-09-28T14:35:31.988Z,35.83
2022-09-28T14:38:30.460Z,35.72
2022-09-28T14:41:15.498Z,35.97
2022-09-28T14:43:46.367Z,35.22
2022-09-28T14:46:20.346Z,35.22
2022-09-28T14:48:56.121Z,35.07
2022-09-28T14:51:27.076Z,34.94
2022-09-28T14:54:05.889Z,34.88
2022-09-28T14:56:59.053Z,33.58
2022-09-28T14:59:36.106Z,34.51
2022-09-28T15:02:22.329Z,34.96
2022-09-28T15:05:01.914Z,34.68
2022-09-28T15:07:43.513Z,34.54
2022-09-28T15:10:31.599Z,34.02
2022-09-28T15:13:05.707Z,34.42
2022-09-28T15:15:37.316Z,34.56
2022-09-28T15:18:27.698Z,34.35
2022-09-28T15:20:56.416Z,34.00
2022-09-28T15:23:35.980Z,33.82
2022-09-28T15:26:08.612Z,34.00
2022-09-28T15:28:39.520Z,34.41
2022-09-28T15:31:07.269Z,34.52
2022-09-28T15:33:54.086Z,34.31
2022-09-28T15:36:27.963Z,34.52
2022-09-28T15:39:00.150Z,34.28
2022-09-28T15:41:29.001Z,34.51
2022-09-28T15:44:33.183Z,33.63
2022-09-28T15:47:25.347Z,33.60
2022-09-28T15:50:02.722Z,33.94
2022-09-28T15:52:38.906Z,34.14
2022-09-28T15:55:20.694Z,33.77
2022-09-28T15:57:49.121Z,33.93
2022-09-28T16:00:27.173Z,33.74
2022-09-28T16:03:19.303Z,33.87
2022-09-28T16:05:59.102Z,34.08
2022-09-28T16:08:36.303Z,35.81
2022-09-28T16:11:17.132Z,35.04
2022-09-28T16:14:17.679Z,34.89
2022-09-28T16:16:49.808Z,34.84
2022-09-28T16:19:30.253Z,34.81
2022-09-28T16:22:00.254Z,34.83
2022-09-28T16:24:38.898Z,34.39
2022-09-28T16:27:08.670Z,34.70
2022-09-28T16:29:42.328Z,34.69
2022-09-28T16:32:25.490Z,35.02
2022-09-28T16:35:11.473Z,34.98
2022-09-28T16:37:44.108Z,34.83
2022-09-28T16:40:12.863Z,34.71
2022-09-28T16:42:48.701Z,34.77
2022-09-28T16:45:22.536Z,34.33
2022-09-28T16:47:53.709Z,34.67
2022-09-28T16:50:22.337Z,34.20
2022-09-28T16:53:15.086Z,34.14
2022-09-28T16:55:43.155Z,34.41
2022-09-28T16:58:10.830Z,34.69
2022-09-28T17:00:38.851Z,34.47
2022-09-28T17:03:18.412Z,34.18
2022-09-28T17:05:48.092Z,34.45
2022-09-28T17:08:18.576Z,34.56
2022-09-28T17:13:42.323Z,35.57
2022-09-28T17:16:14.863Z,36.00
2022-09-28T17:18:42.691Z,36.68
2022-09-28T17:21:15.984Z,37.23
2022-09-28T17:23:44.715Z,37.07
2022-09-28T17:26:34.612Z,37.06
2022-09-28T17:29:02.397Z,39.59
2022-09-28T17:31:30.539Z,40.27
2022-09-28T17:33:58.480Z,39.29
2022-09-28T17:36:27.170Z,39.54
2022-09-28T17:38:54.933Z,39.67
2022-09-28T17:41:22.723Z,39.34
2022-09-28T17:43:50.333Z,38.97
2022-09-28T17:46:31.269Z,38.64
2022-09-28T17:49:00.786Z,39.00
2022-09-28T17:51:31.303Z,38.91
2022-09-28T17:54:01.179Z,38.47
2022-09-28T17:56:32.093Z,38.87
2022-09-28T17:59:10.211Z,38.34
2022-09-28T18:01:40.211Z,38.82
2022-09-28T18:04:13.138Z,39.10
2022-09-28T18:06:43.875Z,39.03
2022-09-28T18:09:14.928Z,37.80
2022-09-28T18:11:44.561Z,37.88
2022-09-28T18:14:13.876Z,38.01
2022-09-28T18:16:41.572Z,37.74
2022-09-28T18:19:09.252Z,37.47
2022-09-28T18:21:36.842Z,37.54
2022-09-28T18:24:04.619Z,37.52
2022-09-28T18:26:32.306Z,37.08
2022-09-28T18:29:00.080Z,37.09
2022-09-28T18:31:28.715Z,36.42
2022-09-28T18:34:02.977Z,35.71
2022-09-28T18:36:32.525Z,36.86
2022-09-28T18:39:01.548Z,36.72
2022-09-28T18:41:29.413Z,37.28
2022-09-28T18:44:00.929Z,37.36
2022-09-28T18:46:34.921Z,38.26
2022-09-28T18:49:04.319Z,38.48
2022-09-28T18:51:32.366Z,37.80
2022-09-28T18:54:02.204Z,38.15
2022-09-28T18:56:30.384Z,38.58
2022-09-28T18:59:00.197Z,37.76
2022-09-28T19:01:30.477Z,37.60
2022-09-28T19:04:00.759Z,37.13
2022-09-28T19:06:29.292Z,37.90
2022-09-28T19:08:57.651Z,37.87
2022-09-28T19:11:27.240Z,37.90
2022-09-28T19:13:55.775Z,37.52
2022-09-28T19:16:25.960Z,36.93
2022-09-28T19:18:53.823Z,36.98
2022-09-28T19:21:21.792Z,37.07
2022-09-28T19:23:50.159Z,37.17
2022-09-28T19:26:21.003Z,36.71
2022-09-28T19:28:49.526Z,36.69
2022-09-28T19:31:17.489Z,36.61
2022-09-28T19:33:46.634Z,36.74
2022-09-28T19:36:18.540Z,36.61
2022-09-28T19:38:46.441Z,36.17
2022-09-28T19:41:39.487Z,36.18
2022-09-28T19:44:26.306Z,36.10
2022-09-28T19:47:00.803Z,36.36
2022-09-28T19:49:30.001Z,36.54
2022-09-28T19:52:14.781Z,36.18
2022-09-28T19:54:58.338Z,36.37
2022-09-28T19:57:30.664Z,36.19
2022-09-28T20:00:02.431Z,36.18
2022-09-28T20:02:35.011Z,37.21
2022-09-28T20:05:03.546Z,37.38
2022-09-28T20:07:33.418Z,37.32
2022-09-28T20:10:00.988Z,39.15
2022-09-28T20:12:28.790Z,37.60
2022-09-28T20:14:56.515Z,37.20
2022-09-28T20:17:24.364Z,36.79
2022-09-28T20:19:52.432Z,36.76
2022-09-28T20:22:20.426Z,36.95
2022-09-28T20:24:48.171Z,36.84
2022-09-28T20:27:15.906Z,37.04
2022-09-28T20:29:43.901Z,36.57
2022-09-28T20:32:11.845Z,36.67
2022-09-28T20:34:39.643Z,37.05
2022-09-28T20:37:07.481Z,37.26
2022-09-28T20:39:35.068Z,37.12
2022-09-28T20:42:05.640Z,37.22
2022-09-28T20:44:33.390Z,37.78
2022-09-28T20:47:01.437Z,37.60
2022-09-28T20:49:29.175Z,37.52
2022-09-28T20:51:56.751Z,37.65
2022-09-28T20:54:24.729Z,37.30
2022-09-28T20:56:52.425Z,37.08
2022-09-28T20:59:22.914Z,36.92
2022-09-28T21:01:51.272Z,36.52
2022-09-28T21:04:19.740Z,36.81
2022-09-28T21:06:47.506Z,36.84
2022-09-28T21:09:15.143Z,36.70
2022-09-28T21:11:43.215Z,36.75
2022-09-28T21:14:10.927Z,36.84
2022-09-28T21:16:39.007Z,37.21
2022-09-28T21:19:06.793Z,37.09
2022-09-28T21:21:34.499Z,37.88
2022-09-28T21:24:02.468Z,38.73
2022-09-28T21:26:31.700Z,39.71
2022-09-28T21:29:12.989Z,41.09
2022-09-28T21:31:46.187Z,40.88
2022-09-28T21:34:19.468Z,41.39
2022-09-28T21:36:51.175Z,42.56
2022-09-28T21:39:20.312Z,43.19
2022-09-28T21:41:48.248Z,43.04
2022-09-28T21:44:15.962Z,44.95
2022-09-28T21:46:43.680Z,44.15
2022-09-28T21:49:12.743Z,44.49
2022-09-28T21:51:40.708Z,44.33
2022-09-28T21:54:08.788Z,44.43
2022-09-28T21:56:36.393Z,43.93
2022-09-28T21:59:04.226Z,44.24
2022-09-28T22:01:32.256Z,44.30
2022-09-28T22:04:00.073Z,44.46
2022-09-28T22:06:28.318Z,44.53
2022-09-28T22:08:57.008Z,44.39
2022-09-28T22:11:27.352Z,44.51
2022-09-28T22:13:59.430Z,45.21
2022-09-28T22:16:29.714Z,45.06
2022-09-28T22:18:58.112Z,44.81
2022-09-28T22:21:32.140Z,44.82
2022-09-28T22:24:04.512Z,44.46
2022-09-28T22:26:34.361Z,45.13
2022-09-28T22:29:05.910Z,45.05
2022-09-28T22:31:36.089Z,44.98
2022-09-28T22:34:04.743Z,45.24
2022-09-28T22:36:32.939Z,44.96
2022-09-28T22:39:00.662Z,45.05
2022-09-28T22:41:28.519Z,44.80
2022-09-28T22:43:56.339Z,44.80
2022-09-28T22:46:27.198Z,45.20
2022-09-28T22:48:56.935Z,44.84
2022-09-28T22:51:26.364Z,44.81
2022-09-28T22:53:54.444Z,45.21
2022-09-28T22:56:22.553Z,44.89
2022-09-28T22:58:50.192Z,44.52
2022-09-28T23:01:24.056Z,45.13
2022-09-28T23:03:52.889Z,45.10
2022-09-28T23:06:23.354Z,44.83
2022-09-28T23:08:51.882Z,44.78
2022-09-28T23:11:20.870Z,44.79
2022-09-28T23:13:52.900Z,44.92
2022-09-28T23:16:23.601Z,44.65
2022-09-28T23:18:52.433Z,44.93
2022-09-28T23:21:22.868Z,44.72
2022-09-28T23:23:59.018Z,45.23
2022-09-28T23:26:28.959Z,45.11
2022-09-28T23:28:57.648Z,44.86
2022-09-28T23:31:28.759Z,44.80
2022-09-28T23:34:04.309Z,45.07
2022-09-28T23:36:32.370Z,45.36
2022-09-28T23:39:00.416Z,45.07
2022-09-28T23:41:28.687Z,45.43
2022-09-28T23:43:56.427Z,45.57
2022-09-28T23:46:24.597Z,45.60
2022-09-28T23:48:52.675Z,45.77
2022-09-28T23:51:20.551Z,45.69
2022-09-28T23:53:48.318Z,45.53
2022-09-28T23:56:15.997Z,45.54
2022-09-28T23:58:43.718Z,46.03
